sensor_id;sensor_type;location;lat;lon;timestamp;temperature;humidity
10312;DHT22;5201;48.776;9.128;2024-03-29T00:02:13;8.70;99.90
10312;DHT22;5201;48.776;9.128;2024-03-29T00:04:38;8.70;99.90
10312;DHT22;5201;48.776;9.128;2024-03-29T00:07:04;8.70;99.90
10312;DHT22;5201;48.776;9.128;2024-03-29T00:09:30;9.10;99.90
10312;DHT22;5201;48.776;9.128;2024-03-29T00:11:55;8.70;99.90
10312;DHT22;5201;48.776;9.128;2024-03-29T00:14:21;8.80;99.90
10312;DHT22;5201;48.776;9.128;2024-03-29T00:16:46;8.80;99.90
10312;DHT22;5201;48.776;9.128;2024-03-29T00:19:12;8.80;99.90
10312;DHT22;5201;48.776;9.128;2024-03-29T00:21:37;8.80;99.90
10312;DHT22;5201;48.776;9.128;2024-03-29T00:24:03;8.80;99.90
10312;DHT22;5201;48.776;9.128;2024-03-29T00:26:29;8.80;99.90
10312;DHT22;5201;48.776;9.128;2024-03-29T00:28:54;9.00;99.90
10312;DHT22;5201;48.776;9.128;2024-03-29T00:31:20;9.10;99.90
10312;DHT22;5201;48.776;9.128;2024-03-29T00:33:46;9.60;99.90
10312;DHT22;5201;48.776;9.128;2024-03-29T00:36:12;9.20;99.90
10312;DHT22;5201;48.776;9.128;2024-03-29T00:38:37;9.20;99.90
10312;DHT22;5201;48.776;9.128;2024-03-29T00:41:03;9.20;99.90
10312;DHT22;5201;48.776;9.128;2024-03-29T00:43:28;9.00;99.90
10312;DHT22;5201;48.776;9.128;2024-03-29T00:45:54;9.60;99.90
10312;DHT22;5201;48.776;9.128;2024-03-29T00:48:19;9.10;99.90
10312;DHT22;5201;48.776;9.128;2024-03-29T00:50:46;9.10;99.90
10312;DHT22;5201;48.776;9.128;2024-03-29T00:53:11;9.10;99.90
10312;DHT22;5201;48.776;9.128;2024-03-29T00:55:37;9.30;99.90
10312;DHT22;5201;48.776;9.128;2024-03-29T00:58:03;9.20;99.90
10312;DHT22;5201;48.776;9.128;2024-03-29T01:00:31;9.20;99.90
10312;DHT22;5201;48.776;9.128;2024-03-29T01:02:57;9.10;99.90
10312;DHT22;5201;48.776;9.128;2024-03-29T01:05:23;9.10;99.90
10312;DHT22;5201;48.776;9.128;2024-03-29T01:07:48;9.00;99.90
10312;DHT22;5201;48.776;9.128;2024-03-29T01:10:14;9.00;99.90
10312;DHT22;5201;48.776;9.128;2024-03-29T01:12:39;9.00;99.90
10312;DHT22;5201;48.776;9.128;2024-03-29T01:15:06;8.90;99.90
10312;DHT22;5201;48.776;9.128;2024-03-29T01:17:32;8.80;99.90
10312;DHT22;5201;48.776;9.128;2024-03-29T01:19:57;8.90;99.90
10312;DHT22;5201;48.776;9.128;2024-03-29T01:22:23;9.10;99.90
10312;DHT22;5201;48.776;9.128;2024-03-29T01:24:48;9.10;99.90
10312;DHT22;5201;48.776;9.128;2024-03-29T01:27:14;9.00;99.90
10312;DHT22;5201;48.776;9.128;2024-03-29T01:29:40;8.90;99.90
10312;DHT22;5201;48.776;9.128;2024-03-29T01:32:06;8.80;99.90
10312;DHT22;5201;48.776;9.128;2024-03-29T01:34:31;8.80;99.90
10312;DHT22;5201;48.776;9.128;2024-03-29T01:36:57;8.80;99.90
10312;DHT22;5201;48.776;9.128;2024-03-29T01:39:22;8.80;99.90
10312;DHT22;5201;48.776;9.128;2024-03-29T01:41:54;8.90;99.90
10312;DHT22;5201;48.776;9.128;2024-03-29T01:44:19;8.90;99.90
10312;DHT22;5201;48.776;9.128;2024-03-29T01:46:45;9.00;99.90
10312;DHT22;5201;48.776;9.128;2024-03-29T01:49:12;9.00;99.90
10312;DHT22;5201;48.776;9.128;2024-03-29T01:51:39;9.50;99.90
10312;DHT22;5201;48.776;9.128;2024-03-29T01:54:08;9.00;99.90
10312;DHT22;5201;48.776;9.128;2024-03-29T01:56:35;8.90;99.90
10312;DHT22;5201;48.776;9.128;2024-03-29T01:59:03;8.90;99.90
10312;DHT22;5201;48.776;9.128;2024-03-29T02:01:30;8.90;99.90
10312;DHT22;5201;48.776;9.128;2024-03-29T02:03:56;8.80;99.90
10312;DHT22;5201;48.776;9.128;2024-03-29T02:06:22;8.90;99.90
10312;DHT22;5201;48.776;9.128;2024-03-29T02:08:52;8.90;99.90
10312;DHT22;5201;48.776;9.128;2024-03-29T02:11:19;9.30;99.90
10312;DHT22;5201;48.776;9.128;2024-03-29T02:13:45;9.10;99.90
10312;DHT22;5201;48.776;9.128;2024-03-29T02:16:11;9.10;99.90
10312;DHT22;5201;48.776;9.128;2024-03-29T02:18:36;9.00;99.90
10312;DHT22;5201;48.776;9.128;2024-03-29T02:21:02;8.90;99.90
10312;DHT22;5201;48.776;9.128;2024-03-29T02:23:29;8.80;99.90
10312;DHT22;5201;48.776;9.128;2024-03-29T02:25:55;8.90;99.90
10312;DHT22;5201;48.776;9.128;2024-03-29T02:28:22;8.90;99.90
10312;DHT22;5201;48.776;9.128;2024-03-29T02:30:49;8.90;99.90
10312;DHT22;5201;48.776;9.128;2024-03-29T02:33:15;9.00;99.90
10312;DHT22;5201;48.776;9.128;2024-03-29T02:35:40;9.50;99.90
10312;DHT22;5201;48.776;9.128;2024-03-29T02:38:06;9.10;99.90
10312;DHT22;5201;48.776;9.128;2024-03-29T02:40:31;9.10;99.90
10312;DHT22;5201;48.776;9.128;2024-03-29T02:42:57;9.20;99.90
10312;DHT22;5201;48.776;9.128;2024-03-29T02:45:22;9.80;99.90
10312;DHT22;5201;48.776;9.128;2024-03-29T02:47:48;9.80;99.90
10312;DHT22;5201;48.776;9.128;2024-03-29T02:50:15;9.20;99.90
10312;DHT22;5201;48.776;9.128;2024-03-29T02:52:41;9.10;99.90
10312;DHT22;5201;48.776;9.128;2024-03-29T02:55:07;9.00;99.90
10312;DHT22;5201;48.776;9.128;2024-03-29T02:57:32;9.00;99.90
10312;DHT22;5201;48.776;9.128;2024-03-29T02:59:58;9.10;99.90
10312;DHT22;5201;48.776;9.128;2024-03-29T03:02:23;9.60;99.90
10312;DHT22;5201;48.776;9.128;2024-03-29T03:04:49;8.90;99.90
10312;DHT22;5201;48.776;9.128;2024-03-29T03:07:15;9.30;99.90
10312;DHT22;5201;48.776;9.128;2024-03-29T03:09:59;9.10;99.90
10312;DHT22;5201;48.776;9.128;2024-03-29T03:12:43;9.20;99.90
10312;DHT22;5201;48.776;9.128;2024-03-29T03:15:09;9.30;99.90
10312;DHT22;5201;48.776;9.128;2024-03-29T03:17:34;9.20;99.90
10312;DHT22;5201;48.776;9.128;2024-03-29T03:20:00;9.80;99.90
10312;DHT22;5201;48.776;9.128;2024-03-29T03:22:25;9.10;99.90
10312;DHT22;5201;48.776;9.128;2024-03-29T03:24:51;9.00;99.90
10312;DHT22;5201;48.776;9.128;2024-03-29T03:27:16;8.90;99.90
10312;DHT22;5201;48.776;9.128;2024-03-29T03:29:42;9.00;99.90
10312;DHT22;5201;48.776;9.128;2024-03-29T03:32:07;9.00;99.90
10312;DHT22;5201;48.776;9.128;2024-03-29T03:34:34;9.20;99.90
10312;DHT22;5201;48.776;9.128;2024-03-29T03:36:59;9.30;99.90
10312;DHT22;5201;48.776;9.128;2024-03-29T03:39:25;9.70;99.90
10312;DHT22;5201;48.776;9.128;2024-03-29T03:41:51;9.40;99.90
10312;DHT22;5201;48.776;9.128;2024-03-29T03:44:16;9.50;99.90
10312;DHT22;5201;48.776;9.128;2024-03-29T03:46:42;9.60;99.90
10312;DHT22;5201;48.776;9.128;2024-03-29T03:49:08;10.00;99.90
10312;DHT22;5201;48.776;9.128;2024-03-29T03:51:33;9.90;99.90
10312;DHT22;5201;48.776;9.128;2024-03-29T03:53:59;9.60;99.90
10312;DHT22;5201;48.776;9.128;2024-03-29T03:56:24;9.60;99.90
10312;DHT22;5201;48.776;9.128;2024-03-29T03:58:50;9.70;99.90
10312;DHT22;5201;48.776;9.128;2024-03-29T04:01:15;9.80;99.90
10312;DHT22;5201;48.776;9.128;2024-03-29T04:03:41;9.80;99.90
10312;DHT22;5201;48.776;9.128;2024-03-29T04:06:07;10.20;99.90
10312;DHT22;5201;48.776;9.128;2024-03-29T04:08:32;10.00;99.90
10312;DHT22;5201;48.776;9.128;2024-03-29T04:11:04;10.10;99.70
10312;DHT22;5201;48.776;9.128;2024-03-29T04:13:30;10.20;99.40
10312;DHT22;5201;48.776;9.128;2024-03-29T04:16:03;10.20;99.50
10312;DHT22;5201;48.776;9.128;2024-03-29T04:18:28;10.30;99.10
10312;DHT22;5201;48.776;9.128;2024-03-29T04:21:00;10.60;98.70
10312;DHT22;5201;48.776;9.128;2024-03-29T04:23:26;10.40;98.70
10312;DHT22;5201;48.776;9.128;2024-03-29T04:25:56;10.40;98.60
10312;DHT22;5201;48.776;9.128;2024-03-29T04:28:22;10.30;98.60
10312;DHT22;5201;48.776;9.128;2024-03-29T04:30:55;10.40;98.30
10312;DHT22;5201;48.776;9.128;2024-03-29T04:33:21;10.50;98.30
10312;DHT22;5201;48.776;9.128;2024-03-29T04:35:58;10.40;98.20
10312;DHT22;5201;48.776;9.128;2024-03-29T04:38:25;10.30;97.90
10312;DHT22;5201;48.776;9.128;2024-03-29T04:40:52;10.20;98.40
10312;DHT22;5201;48.776;9.128;2024-03-29T04:43:20;10.10;98.60
10312;DHT22;5201;48.776;9.128;2024-03-29T04:45:46;10.00;98.80
10312;DHT22;5201;48.776;9.128;2024-03-29T04:48:12;10.20;99.10
10312;DHT22;5201;48.776;9.128;2024-03-29T04:50:38;9.90;99.90
10312;DHT22;5201;48.776;9.128;2024-03-29T04:53:04;9.90;99.90
10312;DHT22;5201;48.776;9.128;2024-03-29T04:55:29;10.00;99.20
10312;DHT22;5201;48.776;9.128;2024-03-29T04:57:55;10.00;99.00
10312;DHT22;5201;48.776;9.128;2024-03-29T05:00:21;10.20;99.10
10312;DHT22;5201;48.776;9.128;2024-03-29T05:02:46;10.70;99.90
10312;DHT22;5201;48.776;9.128;2024-03-29T05:05:12;10.20;99.90
10312;DHT22;5201;48.776;9.128;2024-03-29T05:07:37;10.00;99.60
10312;DHT22;5201;48.776;9.128;2024-03-29T05:10:04;10.00;99.70
10312;DHT22;5201;48.776;9.128;2024-03-29T05:12:33;10.00;99.80
10312;DHT22;5201;48.776;9.128;2024-03-29T05:14:59;10.00;99.70
10312;DHT22;5201;48.776;9.128;2024-03-29T05:17:24;10.80;99.90
10312;DHT22;5201;48.776;9.128;2024-03-29T05:19:55;10.70;99.60
10312;DHT22;5201;48.776;9.128;2024-03-29T05:22:21;10.30;99.40
10312;DHT22;5201;48.776;9.128;2024-03-29T05:24:46;10.30;99.10
10312;DHT22;5201;48.776;9.128;2024-03-29T05:27:12;10.30;99.20
10312;DHT22;5201;48.776;9.128;2024-03-29T05:29:38;10.30;99.20
10312;DHT22;5201;48.776;9.128;2024-03-29T05:32:04;10.30;99.30
10312;DHT22;5201;48.776;9.128;2024-03-29T05:34:30;10.40;99.40
10312;DHT22;5201;48.776;9.128;2024-03-29T05:36:56;10.90;99.50
10312;DHT22;5201;48.776;9.128;2024-03-29T05:39:21;10.30;99.10
10312;DHT22;5201;48.776;9.128;2024-03-29T05:41:47;10.40;99.30
10312;DHT22;5201;48.776;9.128;2024-03-29T05:44:13;10.50;99.50
10312;DHT22;5201;48.776;9.128;2024-03-29T05:46:38;10.30;99.50
10312;DHT22;5201;48.776;9.128;2024-03-29T05:49:05;10.40;99.10
10312;DHT22;5201;48.776;9.128;2024-03-29T05:51:31;10.20;99.40
10312;DHT22;5201;48.776;9.128;2024-03-29T05:53:57;10.30;99.70
10312;DHT22;5201;48.776;9.128;2024-03-29T05:56:23;10.40;99.30
10312;DHT22;5201;48.776;9.128;2024-03-29T05:58:48;10.80;99.40
10312;DHT22;5201;48.776;9.128;2024-03-29T06:01:14;10.80;99.40
10312;DHT22;5201;48.776;9.128;2024-03-29T06:03:39;10.20;99.20
10312;DHT22;5201;48.776;9.128;2024-03-29T06:06:05;10.10;99.10
10312;DHT22;5201;48.776;9.128;2024-03-29T06:08:32;10.10;98.60
10312;DHT22;5201;48.776;9.128;2024-03-29T06:10:58;10.00;98.50
10312;DHT22;5201;48.776;9.128;2024-03-29T06:13:24;10.00;98.90
10312;DHT22;5201;48.776;9.128;2024-03-29T06:16:13;10.20;98.30
10312;DHT22;5201;48.776;9.128;2024-03-29T06:18:57;10.40;98.40
10312;DHT22;5201;48.776;9.128;2024-03-29T06:21:23;10.40;98.20
10312;DHT22;5201;48.776;9.128;2024-03-29T06:23:48;10.40;98.20
10312;DHT22;5201;48.776;9.128;2024-03-29T06:26:14;10.40;98.10
10312;DHT22;5201;48.776;9.128;2024-03-29T06:28:39;10.20;98.50
10312;DHT22;5201;48.776;9.128;2024-03-29T06:31:05;10.40;98.90
10312;DHT22;5201;48.776;9.128;2024-03-29T06:33:31;10.40;98.70
10312;DHT22;5201;48.776;9.128;2024-03-29T06:35:56;10.40;98.70
10312;DHT22;5201;48.776;9.128;2024-03-29T06:38:22;10.40;98.50
10312;DHT22;5201;48.776;9.128;2024-03-29T06:40:47;10.50;98.70
10312;DHT22;5201;48.776;9.128;2024-03-29T06:43:13;10.70;99.00
10312;DHT22;5201;48.776;9.128;2024-03-29T06:45:42;10.80;98.80
10312;DHT22;5201;48.776;9.128;2024-03-29T06:48:10;10.70;98.40
10312;DHT22;5201;48.776;9.128;2024-03-29T06:50:37;10.70;98.70
10312;DHT22;5201;48.776;9.128;2024-03-29T06:53:03;10.60;99.10
10312;DHT22;5201;48.776;9.128;2024-03-29T06:55:30;10.60;98.80
10312;DHT22;5201;48.776;9.128;2024-03-29T06:57:56;10.60;99.10
10312;DHT22;5201;48.776;9.128;2024-03-29T07:00:21;10.70;99.10
10312;DHT22;5201;48.776;9.128;2024-03-29T07:02:47;10.80;99.00
10312;DHT22;5201;48.776;9.128;2024-03-29T07:05:13;10.90;99.20
10312;DHT22;5201;48.776;9.128;2024-03-29T07:07:38;11.00;99.10
10312;DHT22;5201;48.776;9.128;2024-03-29T07:10:06;11.10;99.00
10312;DHT22;5201;48.776;9.128;2024-03-29T07:12:32;11.20;98.80
10312;DHT22;5201;48.776;9.128;2024-03-29T07:14:57;11.30;99.30
10312;DHT22;5201;48.776;9.128;2024-03-29T07:17:23;11.30;98.80
10312;DHT22;5201;48.776;9.128;2024-03-29T07:19:48;11.30;98.40
10312;DHT22;5201;48.776;9.128;2024-03-29T07:22:14;11.20;98.60
10312;DHT22;5201;48.776;9.128;2024-03-29T07:24:39;11.20;98.70
10312;DHT22;5201;48.776;9.128;2024-03-29T07:27:05;11.20;98.90
10312;DHT22;5201;48.776;9.128;2024-03-29T07:29:31;11.20;99.10
10312;DHT22;5201;48.776;9.128;2024-03-29T07:31:59;11.60;99.40
10312;DHT22;5201;48.776;9.128;2024-03-29T07:34:25;11.30;99.90
10312;DHT22;5201;48.776;9.128;2024-03-29T07:36:51;11.20;99.90
10312;DHT22;5201;48.776;9.128;2024-03-29T07:39:16;11.10;99.90
10312;DHT22;5201;48.776;9.128;2024-03-29T07:41:42;11.10;99.90
10312;DHT22;5201;48.776;9.128;2024-03-29T07:44:08;11.00;99.90
10312;DHT22;5201;48.776;9.128;2024-03-29T07:46:35;10.90;99.90
10312;DHT22;5201;48.776;9.128;2024-03-29T07:49:02;10.60;99.90
10312;DHT22;5201;48.776;9.128;2024-03-29T07:51:28;10.50;99.90
10312;DHT22;5201;48.776;9.128;2024-03-29T07:53:54;9.80;99.90
10312;DHT22;5201;48.776;9.128;2024-03-29T07:56:20;9.20;99.90
10312;DHT22;5201;48.776;9.128;2024-03-29T07:58:50;8.90;99.90
10312;DHT22;5201;48.776;9.128;2024-03-29T08:01:22;8.70;99.90
10312;DHT22;5201;48.776;9.128;2024-03-29T08:03:50;8.70;99.90
10312;DHT22;5201;48.776;9.128;2024-03-29T08:06:16;8.80;99.90
10312;DHT22;5201;48.776;9.128;2024-03-29T08:08:44;9.00;99.90
10312;DHT22;5201;48.776;9.128;2024-03-29T08:11:10;9.10;99.90
10312;DHT22;5201;48.776;9.128;2024-03-29T08:13:37;9.10;99.90
10312;DHT22;5201;48.776;9.128;2024-03-29T08:16:03;9.20;99.90
10312;DHT22;5201;48.776;9.128;2024-03-29T08:18:30;9.40;99.90
10312;DHT22;5201;48.776;9.128;2024-03-29T08:20:55;9.50;99.90
10312;DHT22;5201;48.776;9.128;2024-03-29T08:23:22;9.60;99.90
10312;DHT22;5201;48.776;9.128;2024-03-29T08:25:47;9.70;99.90
10312;DHT22;5201;48.776;9.128;2024-03-29T08:28:20;9.70;99.90
10312;DHT22;5201;48.776;9.128;2024-03-29T08:30:46;9.80;99.90
10312;DHT22;5201;48.776;9.128;2024-03-29T08:33:11;9.80;99.90
10312;DHT22;5201;48.776;9.128;2024-03-29T08:35:37;9.90;99.90
10312;DHT22;5201;48.776;9.128;2024-03-29T08:38:04;10.00;99.90
10312;DHT22;5201;48.776;9.128;2024-03-29T08:40:30;10.00;99.90
10312;DHT22;5201;48.776;9.128;2024-03-29T08:42:57;10.00;99.90
10312;DHT22;5201;48.776;9.128;2024-03-29T08:45:23;10.10;99.90
10312;DHT22;5201;48.776;9.128;2024-03-29T08:47:49;10.20;99.90
10312;DHT22;5201;48.776;9.128;2024-03-29T08:50:15;10.20;99.90
10312;DHT22;5201;48.776;9.128;2024-03-29T08:52:40;10.20;99.90
10312;DHT22;5201;48.776;9.128;2024-03-29T08:55:06;10.10;99.90
10312;DHT22;5201;48.776;9.128;2024-03-29T08:57:32;10.20;99.90
10312;DHT22;5201;48.776;9.128;2024-03-29T08:59:58;10.50;99.90
10312;DHT22;5201;48.776;9.128;2024-03-29T09:02:24;10.10;99.90
10312;DHT22;5201;48.776;9.128;2024-03-29T09:04:49;10.20;99.90
10312;DHT22;5201;48.776;9.128;2024-03-29T09:07:15;10.20;99.90
10312;DHT22;5201;48.776;9.128;2024-03-29T09:09:41;10.30;99.90
10312;DHT22;5201;48.776;9.128;2024-03-29T09:12:10;10.30;99.90
10312;DHT22;5201;48.776;9.128;2024-03-29T09:14:35;10.30;99.90
10312;DHT22;5201;48.776;9.128;2024-03-29T09:17:01;10.40;99.90
10312;DHT22;5201;48.776;9.128;2024-03-29T09:19:29;10.50;99.90
10312;DHT22;5201;48.776;9.128;2024-03-29T09:21:58;10.50;99.90
10312;DHT22;5201;48.776;9.128;2024-03-29T09:24:24;10.50;99.90
10312;DHT22;5201;48.776;9.128;2024-03-29T09:26:51;10.60;99.90
10312;DHT22;5201;48.776;9.128;2024-03-29T09:29:17;10.60;99.90
10312;DHT22;5201;48.776;9.128;2024-03-29T09:31:45;10.60;99.90
10312;DHT22;5201;48.776;9.128;2024-03-29T09:34:11;10.60;99.90
10312;DHT22;5201;48.776;9.128;2024-03-29T09:36:36;10.60;99.90
10312;DHT22;5201;48.776;9.128;2024-03-29T09:39:02;10.60;99.90
10312;DHT22;5201;48.776;9.128;2024-03-29T09:41:30;10.50;99.90
10312;DHT22;5201;48.776;9.128;2024-03-29T09:43:59;10.40;99.90
10312;DHT22;5201;48.776;9.128;2024-03-29T09:46:25;10.30;99.90
10312;DHT22;5201;48.776;9.128;2024-03-29T09:48:53;10.30;99.90
10312;DHT22;5201;48.776;9.128;2024-03-29T09:51:21;10.30;99.90
10312;DHT22;5201;48.776;9.128;2024-03-29T09:53:47;10.30;99.90
10312;DHT22;5201;48.776;9.128;2024-03-29T09:56:14;10.30;99.90
10312;DHT22;5201;48.776;9.128;2024-03-29T09:58:39;10.50;99.90
10312;DHT22;5201;48.776;9.128;2024-03-29T10:01:06;10.70;99.90
10312;DHT22;5201;48.776;9.128;2024-03-29T10:03:56;10.60;99.90
10312;DHT22;5201;48.776;9.128;2024-03-29T10:06:24;10.80;99.90
10312;DHT22;5201;48.776;9.128;2024-03-29T10:08:49;11.00;99.90
10312;DHT22;5201;48.776;9.128;2024-03-29T10:11:15;11.10;99.90
10312;DHT22;5201;48.776;9.128;2024-03-29T10:13:45;11.30;99.90
10312;DHT22;5201;48.776;9.128;2024-03-29T10:16:11;11.30;99.90
10312;DHT22;5201;48.776;9.128;2024-03-29T10:18:40;11.50;99.90
10312;DHT22;5201;48.776;9.128;2024-03-29T10:21:07;11.60;99.90
10312;DHT22;5201;48.776;9.128;2024-03-29T10:23:34;12.00;99.90
10312;DHT22;5201;48.776;9.128;2024-03-29T10:26:01;12.20;99.90
10312;DHT22;5201;48.776;9.128;2024-03-29T10:28:46;12.80;99.90
10312;DHT22;5201;48.776;9.128;2024-03-29T10:31:12;12.40;99.90
10312;DHT22;5201;48.776;9.128;2024-03-29T10:33:41;12.20;99.90
10312;DHT22;5201;48.776;9.128;2024-03-29T10:36:07;12.30;99.90
10312;DHT22;5201;48.776;9.128;2024-03-29T10:38:35;12.30;99.90
10312;DHT22;5201;48.776;9.128;2024-03-29T10:41:01;12.30;99.90
10312;DHT22;5201;48.776;9.128;2024-03-29T10:43:29;12.20;99.90
10312;DHT22;5201;48.776;9.128;2024-03-29T10:45:55;12.30;99.90
10312;DHT22;5201;48.776;9.128;2024-03-29T10:48:26;12.70;99.90
10312;DHT22;5201;48.776;9.128;2024-03-29T10:50:54;12.40;99.90
10312;DHT22;5201;48.776;9.128;2024-03-29T10:53:22;12.40;99.90
10312;DHT22;5201;48.776;9.128;2024-03-29T10:55:51;12.80;99.90
10312;DHT22;5201;48.776;9.128;2024-03-29T10:58:20;12.20;99.90
10312;DHT22;5201;48.776;9.128;2024-03-29T11:00:53;12.20;99.90
10312;DHT22;5201;48.776;9.128;2024-03-29T11:03:40;12.00;99.90
10312;DHT22;5201;48.776;9.128;2024-03-29T11:06:06;12.20;99.90
10312;DHT22;5201;48.776;9.128;2024-03-29T11:08:33;12.40;99.90
10312;DHT22;5201;48.776;9.128;2024-03-29T11:11:05;12.60;99.90
10312;DHT22;5201;48.776;9.128;2024-03-29T11:16:07;12.90;99.90
10312;DHT22;5201;48.776;9.128;2024-03-29T11:18:34;12.80;99.90
10312;DHT22;5201;48.776;9.128;2024-03-29T11:21:01;13.00;99.90
10312;DHT22;5201;48.776;9.128;2024-03-29T11:23:28;13.00;99.90
10312;DHT22;5201;48.776;9.128;2024-03-29T11:25:57;13.10;99.90
10312;DHT22;5201;48.776;9.128;2024-03-29T11:28:32;13.20;99.90
10312;DHT22;5201;48.776;9.128;2024-03-29T11:31:01;13.20;99.90
10312;DHT22;5201;48.776;9.128;2024-03-29T11:33:43;13.50;99.90
10312;DHT22;5201;48.776;9.128;2024-03-29T11:36:15;13.10;99.90
10312;DHT22;5201;48.776;9.128;2024-03-29T11:38:48;13.10;99.90
10312;DHT22;5201;48.776;9.128;2024-03-29T11:41:21;13.20;99.90
10312;DHT22;5201;48.776;9.128;2024-03-29T11:43:49;13.40;99.90
10312;DHT22;5201;48.776;9.128;2024-03-29T11:46:15;13.30;99.90
10312;DHT22;5201;48.776;9.128;2024-03-29T11:48:41;13.30;99.90
10312;DHT22;5201;48.776;9.128;2024-03-29T11:51:08;13.40;99.90
10312;DHT22;5201;48.776;9.128;2024-03-29T11:53:35;13.20;99.90
10312;DHT22;5201;48.776;9.128;2024-03-29T11:56:02;13.20;99.90
10312;DHT22;5201;48.776;9.128;2024-03-29T11:58:29;13.30;99.90
10312;DHT22;5201;48.776;9.128;2024-03-29T12:00:56;13.20;99.90
10312;DHT22;5201;48.776;9.128;2024-03-29T12:03:25;13.20;99.90
10312;DHT22;5201;48.776;9.128;2024-03-29T12:05:52;13.10;99.90
10312;DHT22;5201;48.776;9.128;2024-03-29T12:08:30;13.40;99.90
10312;DHT22;5201;48.776;9.128;2024-03-29T12:11:00;13.50;99.90
10312;DHT22;5201;48.776;9.128;2024-03-29T12:13:26;13.50;99.90
10312;DHT22;5201;48.776;9.128;2024-03-29T12:15:53;13.60;99.90
10312;DHT22;5201;48.776;9.128;2024-03-29T12:18:23;13.80;99.90
10312;DHT22;5201;48.776;9.128;2024-03-29T12:20:50;13.90;99.90
10312;DHT22;5201;48.776;9.128;2024-03-29T12:23:20;14.00;99.90
10312;DHT22;5201;48.776;9.128;2024-03-29T12:25:47;14.00;99.90
10312;DHT22;5201;48.776;9.128;2024-03-29T12:28:14;14.00;99.90
10312;DHT22;5201;48.776;9.128;2024-03-29T12:30:45;14.30;99.90
10312;DHT22;5201;48.776;9.128;2024-03-29T12:33:16;14.00;99.90
10312;DHT22;5201;48.776;9.128;2024-03-29T12:35:42;14.00;99.90
10312;DHT22;5201;48.776;9.128;2024-03-29T12:38:14;14.00;99.90
10312;DHT22;5201;48.776;9.128;2024-03-29T12:40:45;14.10;99.90
10312;DHT22;5201;48.776;9.128;2024-03-29T12:43:13;14.10;99.90
10312;DHT22;5201;48.776;9.128;2024-03-29T12:45:40;14.10;99.90
10312;DHT22;5201;48.776;9.128;2024-03-29T12:48:22;14.20;99.90
10312;DHT22;5201;48.776;9.128;2024-03-29T12:50:51;14.30;99.90
10312;DHT22;5201;48.776;9.128;2024-03-29T12:53:18;14.60;99.90
10312;DHT22;5201;48.776;9.128;2024-03-29T12:55:45;15.10;99.90
10312;DHT22;5201;48.776;9.128;2024-03-29T12:58:12;14.60;99.90
10312;DHT22;5201;48.776;9.128;2024-03-29T13:00:39;14.70;99.90
10312;DHT22;5201;48.776;9.128;2024-03-29T13:03:05;14.80;99.90
10312;DHT22;5201;48.776;9.128;2024-03-29T13:05:31;14.70;99.90
10312;DHT22;5201;48.776;9.128;2024-03-29T13:08:13;14.70;99.90
10312;DHT22;5201;48.776;9.128;2024-03-29T13:10:44;14.70;99.90
10312;DHT22;5201;48.776;9.128;2024-03-29T13:13:10;14.60;99.90
10312;DHT22;5201;48.776;9.128;2024-03-29T13:15:39;14.50;99.90
10312;DHT22;5201;48.776;9.128;2024-03-29T13:18:07;15.10;99.90
10312;DHT22;5201;48.776;9.128;2024-03-29T13:20:35;14.70;99.90
10312;DHT22;5201;48.776;9.128;2024-03-29T13:23:02;14.60;99.90
10312;DHT22;5201;48.776;9.128;2024-03-29T13:25:28;14.50;99.90
10312;DHT22;5201;48.776;9.128;2024-03-29T13:27:54;14.50;99.90
10312;DHT22;5201;48.776;9.128;2024-03-29T13:30:27;14.50;99.90
10312;DHT22;5201;48.776;9.128;2024-03-29T13:32:53;14.60;99.90
10312;DHT22;5201;48.776;9.128;2024-03-29T13:35:20;14.60;99.90
10312;DHT22;5201;48.776;9.128;2024-03-29T13:37:50;14.70;99.90
10312;DHT22;5201;48.776;9.128;2024-03-29T13:40:18;14.70;99.90
10312;DHT22;5201;48.776;9.128;2024-03-29T13:42:44;14.80;99.90
10312;DHT22;5201;48.776;9.128;2024-03-29T13:45:10;15.00;99.90
10312;DHT22;5201;48.776;9.128;2024-03-29T13:47:37;14.80;99.90
10312;DHT22;5201;48.776;9.128;2024-03-29T13:50:05;14.90;99.90
10312;DHT22;5201;48.776;9.128;2024-03-29T13:52:31;14.90;99.90
10312;DHT22;5201;48.776;9.128;2024-03-29T13:54:57;14.90;99.90
10312;DHT22;5201;48.776;9.128;2024-03-29T13:57:23;15.00;99.90
10312;DHT22;5201;48.776;9.128;2024-03-29T13:59:49;15.00;99.90
10312;DHT22;5201;48.776;9.128;2024-03-29T14:02:16;15.00;99.90
10312;DHT22;5201;48.776;9.128;2024-03-29T14:04:42;15.10;99.90
10312;DHT22;5201;48.776;9.128;2024-03-29T14:07:09;15.20;99.90
10312;DHT22;5201;48.776;9.128;2024-03-29T14:09:42;15.20;99.90
10312;DHT22;5201;48.776;9.128;2024-03-29T14:12:08;15.10;99.90
10312;DHT22;5201;48.776;9.128;2024-03-29T14:14:34;15.10;99.90
10312;DHT22;5201;48.776;9.128;2024-03-29T14:17:00;15.10;99.90
10312;DHT22;5201;48.776;9.128;2024-03-29T14:19:30;15.10;99.90
10312;DHT22;5201;48.776;9.128;2024-03-29T14:21:57;15.30;99.90
10312;DHT22;5201;48.776;9.128;2024-03-29T14:24:22;15.50;99.90
10312;DHT22;5201;48.776;9.128;2024-03-29T14:26:50;15.90;99.90
10312;DHT22;5201;48.776;9.128;2024-03-29T14:29:16;15.50;99.90
10312;DHT22;5201;48.776;9.128;2024-03-29T14:31:43;15.50;99.90
10312;DHT22;5201;48.776;9.128;2024-03-29T14:34:10;15.60;99.90
10312;DHT22;5201;48.776;9.128;2024-03-29T14:36:36;16.10;99.90
10312;DHT22;5201;48.776;9.128;2024-03-29T14:39:01;15.50;99.90
10312;DHT22;5201;48.776;9.128;2024-03-29T14:41:28;15.60;99.90
10312;DHT22;5201;48.776;9.128;2024-03-29T14:43:54;15.70;99.90
10312;DHT22;5201;48.776;9.128;2024-03-29T14:46:21;15.70;99.90
10312;DHT22;5201;48.776;9.128;2024-03-29T14:48:47;15.60;99.90
10312;DHT22;5201;48.776;9.128;2024-03-29T14:51:12;15.70;99.90
10312;DHT22;5201;48.776;9.128;2024-03-29T14:53:38;15.70;99.90
10312;DHT22;5201;48.776;9.128;2024-03-29T14:56:04;15.70;99.90
10312;DHT22;5201;48.776;9.128;2024-03-29T14:58:30;15.70;99.90
10312;DHT22;5201;48.776;9.128;2024-03-29T15:00:56;15.70;99.90
10312;DHT22;5201;48.776;9.128;2024-03-29T15:03:22;15.70;99.90
10312;DHT22;5201;48.776;9.128;2024-03-29T15:05:49;15.60;99.90
10312;DHT22;5201;48.776;9.128;2024-03-29T15:08:15;15.60;99.90
10312;DHT22;5201;48.776;9.128;2024-03-29T15:10:45;15.90;99.90
10312;DHT22;5201;48.776;9.128;2024-03-29T15:13:11;15.70;99.90
10312;DHT22;5201;48.776;9.128;2024-03-29T15:15:37;15.80;99.90
10312;DHT22;5201;48.776;9.128;2024-03-29T15:18:04;15.90;99.90
10312;DHT22;5201;48.776;9.128;2024-03-29T15:20:31;15.90;99.90
10312;DHT22;5201;48.776;9.128;2024-03-29T15:22:56;16.00;99.90
10312;DHT22;5201;48.776;9.128;2024-03-29T15:25:24;15.90;99.90
10312;DHT22;5201;48.776;9.128;2024-03-29T15:27:49;15.90;99.90
10312;DHT22;5201;48.776;9.128;2024-03-29T15:30:33;16.00;99.90
10312;DHT22;5201;48.776;9.128;2024-03-29T15:33:01;16.00;99.90
10312;DHT22;5201;48.776;9.128;2024-03-29T15:35:27;16.00;99.90
10312;DHT22;5201;48.776;9.128;2024-03-29T15:37:53;16.00;99.90
10312;DHT22;5201;48.776;9.128;2024-03-29T15:40:20;16.00;99.90
10312;DHT22;5201;48.776;9.128;2024-03-29T15:42:46;16.00;99.90
10312;DHT22;5201;48.776;9.128;2024-03-29T15:45:12;16.10;99.90
10312;DHT22;5201;48.776;9.128;2024-03-29T15:47:37;16.10;99.90
10312;DHT22;5201;48.776;9.128;2024-03-29T15:50:03;16.10;99.90
10312;DHT22;5201;48.776;9.128;2024-03-29T15:52:29;16.20;99.90